createdAt,value
2022-11-21T00:00:14.869Z,26.7
2022-11-21T00:01:22.364Z,25.7
2022-11-21T00:02:29.879Z,23.2
2022-11-21T00:03:36.857Z,25.6
2022-11-21T00:04:44.347Z,25.7
2022-11-21T00:05:52.868Z,25.8
2022-11-21T00:06:59.926Z,26.3
2022-11-21T00:08:07.176Z,26.2
2022-11-21T00:09:18.604Z,26.6
2022-11-21T00:10:25.897Z,25.8
2022-11-21T00:11:33.476Z,26.4
2022-11-21T00:12:44.544Z,28.2
2022-11-21T00:13:52.221Z,26.1
2022-11-21T00:14:59.997Z,24.9
2022-11-21T00:16:08.084Z,27.3
2022-11-21T00:17:15.512Z,25.4
2022-11-21T00:18:23.973Z,25.7
2022-11-21T00:19:31.228Z,25.2
2022-11-21T00:20:38.233Z,25
2022-11-21T00:21:46.454Z,25.2
2022-11-21T00:22:54.064Z,23
2022-11-21T00:24:01.172Z,23.8
2022-11-21T00:25:09.555Z,24.9
2022-11-21T00:26:17.025Z,22.4
2022-11-21T00:27:24.116Z,23.3
2022-11-21T00:28:31.626Z,24.4
2022-11-21T00:29:39.470Z,22.8
2022-11-21T00:30:47.460Z,22.1
2022-11-21T00:31:54.710Z,24.4
2022-11-21T00:33:02.981Z,26.2
2022-11-21T00:34:10.088Z,24.7
2022-11-21T00:35:17.456Z,24.2
2022-11-21T00:36:25.585Z,25.9
2022-11-21T00:37:33.164Z,26.6
2022-11-21T00:38:40.271Z,25.5
2022-11-21T00:39:47.352Z,23.8
2022-11-21T00:40:54.604Z,23.1
2022-11-21T00:42:01.865Z,23.8
2022-11-21T00:43:09.244Z,25
2022-11-21T00:44:16.652Z,23.9
2022-11-21T00:45:24.702Z,24.9
2022-11-21T00:46:31.337Z,24.7
2022-11-21T00:47:39.694Z,23.2
2022-11-21T00:48:47.467Z,23
2022-11-21T00:49:54.912Z,23
2022-11-21T00:51:01.901Z,24.2
2022-11-21T00:52:08.983Z,24.3
2022-11-21T00:53:20.387Z,24.1
2022-11-21T00:54:27.956Z,23.9
2022-11-21T00:55:35.204Z,24.2
2022-11-21T00:56:42.932Z,24
2022-11-21T00:57:50.287Z,22.5
2022-11-21T00:58:57.427Z,25.4
2022-11-21T01:00:05.483Z,25.2
2022-11-21T01:01:13.632Z,22.5
2022-11-21T01:02:20.996Z,23.8
2022-11-21T01:03:28.268Z,24.4
2022-11-21T01:04:36.897Z,24.5
2022-11-21T01:05:44.355Z,23.3
2022-11-21T01:06:51.708Z,23.3
2022-11-21T01:07:58.835Z,22.8
2022-11-21T01:09:06.592Z,22.6
2022-11-21T01:10:14.720Z,22.2
2022-11-21T01:11:22.421Z,22.9
2022-11-21T01:12:29.917Z,22.1
2022-11-21T01:13:38.032Z,23.1
2022-11-21T01:14:45.459Z,23.5
2022-11-21T01:15:52.768Z,24.6
2022-11-21T01:16:59.739Z,24
2022-11-21T01:18:12.887Z,23.2
2022-11-21T01:19:22.975Z,23.6
2022-11-21T01:20:30.600Z,23.5
2022-11-21T01:21:37.948Z,24.3
2022-11-21T01:22:45.431Z,24.7
2022-11-21T01:23:52.852Z,25.2
2022-11-21T01:25:03.316Z,24.4
2022-11-21T01:26:10.461Z,23
2022-11-21T01:27:19.507Z,24.3
2022-11-21T01:28:27.019Z,23
2022-11-21T01:29:34.504Z,23.3
2022-11-21T01:30:41.822Z,23.3
2022-11-21T01:31:49.429Z,24.5
2022-11-21T01:32:57.631Z,23.3
2022-11-21T01:34:05.829Z,24.1
2022-11-21T01:35:13.861Z,22.3
2022-11-21T01:36:20.717Z,22.8
2022-11-21T01:37:29.098Z,23.8
2022-11-21T01:38:37.070Z,23
2022-11-21T01:39:45.020Z,24.3
2022-11-21T01:40:52.465Z,26.2
2022-11-21T01:42:00.182Z,25.6
2022-11-21T01:43:07.777Z,25.5
2022-11-21T01:44:14.741Z,27.2
2022-11-21T01:45:24.489Z,25.4
2022-11-21T01:46:42.221Z,25.5
2022-11-21T01:47:50.222Z,24.5
2022-11-21T01:48:57.526Z,25.4
2022-11-21T01:50:07.187Z,23.6
2022-11-21T01:51:11.723Z,23.4
2022-11-21T01:52:21.750Z,23
2022-11-21T01:53:29.960Z,23.6
2022-11-21T01:54:37.547Z,23.2
2022-11-21T01:55:50.209Z,23.2
2022-11-21T01:56:57.831Z,22.9
2022-11-21T01:58:11.147Z,23.7
2022-11-21T01:59:18.524Z,23.3
2022-11-21T02:00:30.866Z,23.4
2022-11-21T02:01:37.866Z,23.5
2022-11-21T02:02:45.910Z,23.8
2022-11-21T02:03:53.082Z,22.4
2022-11-21T02:05:00.320Z,23
2022-11-21T02:06:08.289Z,22.9
2022-11-21T02:07:15.629Z,23.7
2022-11-21T02:08:23.121Z,23.2
2022-11-21T02:09:30.482Z,24.5
2022-11-21T02:10:37.529Z,23.3
2022-11-21T02:11:44.897Z,23.3
2022-11-21T02:12:55.239Z,25
2022-11-21T02:14:02.450Z,23.3
2022-11-21T02:15:09.757Z,24.2
2022-11-21T02:16:17.922Z,23.7
2022-11-21T02:17:24.869Z,24
2022-11-21T02:18:32.025Z,24.9
2022-11-21T02:19:39.186Z,24.7
2022-11-21T02:20:51.346Z,22.9
2022-11-21T02:21:58.525Z,24
2022-11-21T02:23:06.165Z,24
2022-11-21T02:24:17.189Z,25.6
2022-11-21T02:25:29.798Z,24.4
2022-11-21T02:26:39.750Z,24
2022-11-21T02:27:46.975Z,21.5
2022-11-21T02:28:54.545Z,23
2022-11-21T02:30:02.721Z,24.1
2022-11-21T02:31:12.393Z,22.7
2022-11-21T02:32:19.749Z,23.6
2022-11-21T02:33:29.682Z,25.6
2022-11-21T02:34:36.977Z,24.4
2022-11-21T02:35:44.344Z,22.9
2022-11-21T02:36:59.146Z,22.8
2022-11-21T02:38:06.338Z,23.4
2022-11-21T02:39:21.669Z,27.1
2022-11-21T02:40:29.042Z,24.1
2022-11-21T02:41:36.585Z,24.5
2022-11-21T02:42:52.614Z,23.8
2022-11-21T02:44:01.601Z,22.7
2022-11-21T02:45:09.798Z,23
2022-11-21T02:46:23.514Z,22.6
2022-11-21T02:47:30.965Z,22.6
2022-11-21T02:48:38.313Z,23.6
2022-11-21T02:49:46.577Z,22.3
2022-11-21T02:51:00.493Z,22.3
2022-11-21T02:52:07.630Z,21.8
2022-11-21T02:53:14.945Z,21.2
2022-11-21T02:54:22.207Z,21.4
2022-11-21T02:55:29.680Z,21.9
2022-11-21T02:56:42.249Z,21
2022-11-21T02:57:53.905Z,20.3
2022-11-21T02:59:01.021Z,21.3
2022-11-21T03:00:08.193Z,20.5
2022-11-21T03:01:16.626Z,20.5
2022-11-21T03:02:25.624Z,21.2
2022-11-21T03:03:32.777Z,20.3
2022-11-21T03:04:39.818Z,20.3
2022-11-21T03:05:47.015Z,20.5
2022-11-21T03:06:55.171Z,20.9
2022-11-21T03:08:02.525Z,21.6
2022-11-21T03:09:09.896Z,20.8
2022-11-21T03:10:18.199Z,21.1
2022-11-21T03:11:25.525Z,20.2
2022-11-21T03:12:33.785Z,21.7
2022-11-21T03:13:41.385Z,20.3
2022-11-21T03:14:49.749Z,20.2
2022-11-21T03:15:57.129Z,21.7
2022-11-21T03:17:04.510Z,19.9
2022-11-21T03:18:12.914Z,20
2022-11-21T03:19:20.489Z,20.3
2022-11-21T03:20:28.209Z,20.6
2022-11-21T03:21:35.561Z,20.3
2022-11-21T03:22:43.503Z,20.5
2022-11-21T03:23:51.029Z,21.2
2022-11-21T03:24:59.415Z,21.4
2022-11-21T03:26:06.908Z,20.5
2022-11-21T03:27:15.629Z,21.6
2022-11-21T03:28:23.089Z,19.9
2022-11-21T03:29:30.157Z,21.7
2022-11-21T03:30:37.195Z,21.9
2022-11-21T03:31:44.660Z,20.3
2022-11-21T03:32:52.181Z,21.5
2022-11-21T03:33:59.274Z,21.9
2022-11-21T03:35:07.201Z,20.7
2022-11-21T03:36:14.665Z,19.7
2022-11-21T03:37:22.530Z,19.9
2022-11-21T03:38:29.797Z,20.3
2022-11-21T03:39:38.023Z,22.1
2022-11-21T03:40:46.017Z,20.1
2022-11-21T03:41:53.961Z,21.7
2022-11-21T03:43:01.497Z,21.8
2022-11-21T03:44:10.208Z,21.5
2022-11-21T03:45:17.848Z,22.1
2022-11-21T03:46:25.305Z,22.4
2022-11-21T03:47:32.400Z,22.3
2022-11-21T03:48:41.471Z,21.8
2022-11-21T03:49:48.761Z,22.9
2022-11-21T03:50:55.928Z,22.1
2022-11-21T03:52:03.185Z,21.1
2022-11-21T03:53:10.157Z,22.6
2022-11-21T03:54:18.315Z,24.7
2022-11-21T03:55:25.460Z,23
2022-11-21T03:56:32.596Z,22.2
2022-11-21T03:57:41.413Z,22.9
2022-11-21T03:58:50.265Z,23.2
2022-11-21T03:59:57.878Z,23.4
2022-11-21T04:01:05.356Z,23.6
2022-11-21T04:02:12.587Z,21.9
2022-11-21T04:03:20.749Z,23.2
2022-11-21T04:04:36.729Z,23.6
2022-11-21T04:05:58.087Z,24.1
2022-11-21T04:07:05.927Z,25
2022-11-21T04:08:13.015Z,24
2022-11-21T04:09:20.657Z,24.9
2022-11-21T04:10:29.072Z,23.8
2022-11-21T04:11:37.268Z,25.1
2022-11-21T04:12:44.568Z,24.8
2022-11-21T04:13:52.164Z,23.9
2022-11-21T04:14:59.732Z,25
2022-11-21T04:16:07.252Z,25.6
2022-11-21T04:17:14.597Z,24.8
2022-11-21T04:18:22.337Z,25.4
2022-11-21T04:19:31.030Z,27
2022-11-21T04:20:38.445Z,26.7
2022-11-21T04:21:46.334Z,24.9
2022-11-21T04:22:53.681Z,25.2
2022-11-21T04:24:04.507Z,24.9
2022-11-21T04:25:12.125Z,25
2022-11-21T04:26:19.680Z,25.7
2022-11-21T04:27:27.133Z,24.3
2022-11-21T04:28:34.344Z,24.3
2022-11-21T04:29:41.532Z,24.6
2022-11-21T04:30:48.856Z,23.7
2022-11-21T04:31:56.360Z,24.2
2022-11-21T04:33:03.580Z,23.8
2022-11-21T04:34:11.118Z,24.7
2022-11-21T04:35:18.224Z,24
2022-11-21T04:36:25.337Z,23.3
2022-11-21T04:37:32.623Z,23.9
2022-11-21T04:38:40.762Z,24.2
2022-11-21T04:39:47.961Z,24.4
2022-11-21T04:40:56.616Z,24.2
2022-11-21T04:42:05.169Z,23.9
2022-11-21T04:43:15.021Z,25.4
2022-11-21T04:44:22.321Z,25.3
2022-11-21T04:45:29.521Z,25.6
2022-11-21T04:46:36.888Z,26.5
2022-11-21T04:47:45.157Z,26.2
2022-11-21T04:48:52.393Z,26.8
2022-11-21T04:49:59.609Z,27.8
2022-11-21T04:51:06.881Z,27
2022-11-21T04:52:14.833Z,26.1
2022-11-21T04:53:22.336Z,27.4
2022-11-21T04:54:31.217Z,26.6
2022-11-21T04:55:38.778Z,27.1
2022-11-21T04:56:46.041Z,25.6
2022-11-21T04:57:53.253Z,24.7
2022-11-21T04:59:01.481Z,24
2022-11-21T05:00:09.106Z,24.7
2022-11-21T05:01:17.844Z,25.1
2022-11-21T05:02:25.988Z,24.1
2022-11-21T05:03:34.171Z,24
2022-11-21T05:04:42.793Z,24.6
2022-11-21T05:05:53.453Z,23.8
2022-11-21T05:07:05.312Z,24.1
2022-11-21T05:08:13.225Z,23.8
2022-11-21T05:09:26.162Z,23.7
2022-11-21T05:10:35.613Z,23.1
2022-11-21T05:11:48.649Z,20.9
2022-11-21T05:13:01.177Z,21.5
2022-11-21T05:14:14.005Z,21.9
2022-11-21T05:15:24.560Z,21.7
2022-11-21T05:16:29.678Z,21
2022-11-21T05:17:37.225Z,20.2
2022-11-21T05:18:46.077Z,22.5
2022-11-21T05:19:54.242Z,24.9
2022-11-21T05:21:09.825Z,26.5
2022-11-21T05:22:16.797Z,27.9
2022-11-21T05:23:24.133Z,29.7
2022-11-21T05:24:31.657Z,31.4
2022-11-21T05:25:39.292Z,30.3
2022-11-21T05:26:46.894Z,28.4
2022-11-21T05:27:54.065Z,31.3
2022-11-21T05:29:02.357Z,28.9
2022-11-21T05:30:09.577Z,32.2
2022-11-21T05:31:17.644Z,30.1
2022-11-21T05:32:24.693Z,31
2022-11-21T05:33:31.669Z,31.2
2022-11-21T05:34:38.981Z,31.4
2022-11-21T05:35:47.845Z,29.2
2022-11-21T05:36:55.658Z,29.3
2022-11-21T05:38:02.826Z,30.2
2022-11-21T05:39:11.537Z,29.6
2022-11-21T05:40:18.893Z,30.4
2022-11-21T05:41:28.954Z,26.5
2022-11-21T05:42:36.957Z,27.7
2022-11-21T05:43:49.184Z,26.8
2022-11-21T05:44:57.692Z,25.7
2022-11-21T05:46:05.860Z,25.2
2022-11-21T05:47:13.429Z,25.4
2022-11-21T05:48:20.901Z,24.7
2022-11-21T05:49:28.344Z,22.4
2022-11-21T05:50:35.762Z,23.7
2022-11-21T05:51:42.860Z,24.9
2022-11-21T05:52:49.905Z,23.8
2022-11-21T05:53:57.606Z,23.2
2022-11-21T05:55:05.405Z,23
2022-11-21T05:56:12.941Z,22.1
2022-11-21T05:57:20.395Z,20.8
2022-11-21T05:58:28.110Z,20.8
2022-11-21T05:59:36.759Z,20.6
2022-11-21T06:00:43.903Z,20.3
2022-11-21T06:01:51.596Z,19.4
2022-11-21T06:03:04.448Z,20.6
2022-11-21T06:04:17.539Z,20.6
2022-11-21T06:05:25.512Z,20.7
2022-11-21T06:06:41.271Z,19.8
2022-11-21T06:07:53.711Z,20.9
2022-11-21T06:09:00.683Z,20.4
2022-11-21T06:10:07.783Z,21.1
2022-11-21T06:11:16.270Z,20.5
2022-11-21T06:12:25.541Z,21.1
2022-11-21T06:13:30.727Z,21.6
2022-11-21T06:14:38.387Z,21.3
2022-11-21T06:15:45.594Z,23.2
2022-11-21T06:16:57.721Z,24.7
2022-11-21T06:18:04.734Z,23.6
2022-11-21T06:19:11.884Z,23.6
2022-11-21T06:20:19.442Z,23.1
2022-11-21T06:21:27.791Z,23.3
2022-11-21T06:22:35.762Z,23.7
2022-11-21T06:23:43.034Z,23.9
2022-11-21T06:24:52.168Z,22.9
2022-11-21T06:25:59.381Z,24.3
2022-11-21T06:27:07.144Z,23.1
2022-11-21T06:28:15.670Z,24.1
2022-11-21T06:29:22.882Z,24.1
2022-11-21T06:30:31.286Z,24.3
2022-11-21T06:31:38.823Z,24.2
2022-11-21T06:32:46.601Z,23.6
2022-11-21T06:33:53.918Z,24.7
2022-11-21T06:35:01.295Z,25.4
2022-11-21T06:36:08.719Z,23.8
2022-11-21T06:37:16.356Z,24.5
2022-11-21T06:38:23.484Z,25.5
2022-11-21T06:39:30.582Z,24.1
2022-11-21T06:40:38.058Z,24.6
2022-11-21T06:41:46.127Z,24.8
2022-11-21T06:42:55.270Z,24.4
2022-11-21T06:44:02.634Z,24.8
2022-11-21T06:45:09.763Z,24.6
2022-11-21T06:46:16.971Z,23.3
2022-11-21T06:47:25.103Z,24.2
2022-11-21T06:48:32.479Z,24.7
2022-11-21T06:49:40.087Z,25
2022-11-21T06:50:47.838Z,25
2022-11-21T06:51:56.491Z,24.8
2022-11-21T06:53:03.783Z,23.2
2022-11-21T06:54:15.191Z,25.4
2022-11-21T06:55:18.202Z,24.5
2022-11-21T06:56:25.917Z,25
2022-11-21T06:57:33.543Z,24.7
2022-11-21T06:58:40.438Z,25.8
2022-11-21T06:59:47.659Z,27.9
2022-11-21T07:00:54.744Z,29
2022-11-21T07:02:02.955Z,27.8
2022-11-21T07:03:11.299Z,31.2
2022-11-21T07:04:19.822Z,28.9
2022-11-21T07:05:28.368Z,29.1
2022-11-21T07:06:35.455Z,28.9
2022-11-21T07:07:43.291Z,28.9
2022-11-21T07:09:00.159Z,27.9
2022-11-21T07:09:57.443Z,27.9
2022-11-21T07:11:23.951Z,27.5
2022-11-21T07:12:12.564Z,28.1
2022-11-21T07:13:24.942Z,29.6
2022-11-21T07:14:32.753Z,29.7
2022-11-21T07:15:40.970Z,31.1
2022-11-21T07:16:49.711Z,30.2
2022-11-21T07:17:57.382Z,25.6
2022-11-21T07:19:04.603Z,27.5
2022-11-21T07:20:11.835Z,28.1
2022-11-21T07:21:19.263Z,28.7
2022-11-21T07:22:26.570Z,27.3
2022-11-21T07:23:34.914Z,26.2
2022-11-21T07:24:43.838Z,24.7
2022-11-21T07:25:50.925Z,24
2022-11-21T07:26:57.958Z,22.2
2022-11-21T07:28:05.246Z,21.9
2022-11-21T07:29:12.430Z,21.6
2022-11-21T07:30:20.353Z,22.4
2022-11-21T07:31:27.509Z,24.1
2022-11-21T07:32:39.771Z,24.3
2022-11-21T07:33:47.123Z,27.4
2022-11-21T07:35:04.942Z,31
2022-11-21T07:36:16.815Z,31
2022-11-21T07:37:24.922Z,28.8
2022-11-21T07:38:37.852Z,28.7
2022-11-21T07:39:46.002Z,31.4
2022-11-21T07:40:55.827Z,28.6
2022-11-21T07:42:03.417Z,26.4
2022-11-21T07:43:11.144Z,26.5
2022-11-21T07:44:20.932Z,26.3
2022-11-21T07:45:28.547Z,27.7
2022-11-21T07:46:35.586Z,27
2022-11-21T07:47:43.001Z,28.8
2022-11-21T07:48:50.187Z,28
2022-11-21T07:49:57.367Z,31.8
2022-11-21T07:51:05.821Z,31.9
2022-11-21T07:52:13.188Z,31.6
2022-11-21T07:53:21.319Z,32.7
2022-11-21T07:54:28.835Z,34.2
2022-11-21T07:55:40.508Z,34.1
2022-11-21T07:56:44.691Z,38.7
2022-11-21T07:57:52.335Z,39.6
2022-11-21T07:59:07.055Z,36.3
2022-11-21T08:00:16.239Z,37.3
2022-11-21T08:01:23.630Z,38
2022-11-21T08:02:30.499Z,40
2022-11-21T08:03:37.939Z,38
2022-11-21T08:04:45.767Z,35.9
2022-11-21T08:05:53.151Z,37.8
2022-11-21T08:07:00.242Z,34.2
2022-11-21T08:08:07.165Z,35.6
2022-11-21T08:09:15.591Z,37.5
2022-11-21T08:10:24.095Z,36.4
2022-11-21T08:11:31.135Z,35.7
2022-11-21T08:12:38.275Z,32
2022-11-21T08:13:45.775Z,32.4
2022-11-21T08:14:53.143Z,31.1
2022-11-21T08:16:01.485Z,29.5
2022-11-21T08:17:08.926Z,30.7
2022-11-21T08:18:15.988Z,30.9
2022-11-21T08:19:23.311Z,28.1
2022-11-21T08:20:30.763Z,27.6
2022-11-21T08:21:37.859Z,27.5
2022-11-21T08:22:44.916Z,27.6
2022-11-21T08:23:52.259Z,26.3
2022-11-21T08:24:59.219Z,26.8
2022-11-21T08:26:06.403Z,26.8
2022-11-21T08:27:13.559Z,26.1
2022-11-21T08:28:20.614Z,26.1
2022-11-21T08:29:27.991Z,28.7
2022-11-21T08:30:34.951Z,30.1
2022-11-21T08:31:42.981Z,27.7
2022-11-21T08:32:50.413Z,27.3
2022-11-21T08:33:57.340Z,27.9
2022-11-21T08:35:05.479Z,29.9
2022-11-21T08:36:12.888Z,27.9
2022-11-21T08:37:20.238Z,24.3
2022-11-21T08:38:27.359Z,26.1
2022-11-21T08:39:34.950Z,24.8
2022-11-21T08:40:42.622Z,24.6
2022-11-21T08:41:50.407Z,23.8
2022-11-21T08:43:02.662Z,26.1
2022-11-21T08:44:13.761Z,27.4
2022-11-21T08:45:17.291Z,27.7
2022-11-21T08:46:25.465Z,27.1
2022-11-21T08:47:32.947Z,27.9
2022-11-21T08:48:40.220Z,25
2022-11-21T08:49:47.398Z,22.7
2022-11-21T08:50:54.567Z,24.6
2022-11-21T08:52:01.643Z,22.7
2022-11-21T08:53:08.727Z,22.3
2022-11-21T08:54:15.966Z,23.3
2022-11-21T08:55:23.159Z,23.2
2022-11-21T08:56:30.135Z,24.4
2022-11-21T08:57:37.298Z,23.8
2022-11-21T08:58:44.794Z,23
2022-11-21T08:59:52.207Z,23.7
2022-11-21T09:00:59.223Z,24.5
2022-11-21T09:02:06.796Z,23.1
2022-11-21T09:03:16.765Z,21.7
2022-11-21T09:04:21.246Z,23.2
2022-11-21T09:05:28.336Z,23.3
2022-11-21T09:06:35.538Z,21.2
2022-11-21T09:07:42.625Z,20.8
2022-11-21T09:08:49.707Z,21.2
2022-11-21T09:09:56.836Z,20.7
2022-11-21T09:11:04.157Z,21.5
2022-11-21T09:12:11.223Z,21.5
2022-11-21T09:13:18.551Z,21.6
2022-11-21T09:14:25.939Z,21.2
2022-11-21T09:15:37.630Z,21.5
2022-11-21T09:16:51.066Z,20.5
2022-11-21T09:18:03.612Z,20.5
2022-11-21T09:19:10.720Z,20.3
2022-11-21T09:20:18.858Z,20.6
2022-11-21T09:21:26.943Z,19.9
2022-11-21T09:22:34.450Z,20.2
2022-11-21T09:23:41.790Z,18.3
2022-11-21T09:24:49.011Z,20.5
2022-11-21T09:25:56.063Z,20.5
2022-11-21T09:27:03.482Z,19.4
2022-11-21T09:28:10.763Z,16.6
2022-11-21T09:29:17.871Z,19
2022-11-21T09:30:25.507Z,19.9
2022-11-21T09:31:33.728Z,17.9
2022-11-21T09:32:42.742Z,17.7
2022-11-21T09:33:54.720Z,18.2
2022-11-21T09:34:57.275Z,16.7
2022-11-21T09:36:04.443Z,17
2022-11-21T09:37:12.367Z,16.4
2022-11-21T09:38:23.732Z,15.3
2022-11-21T09:39:27.613Z,15.5
2022-11-21T09:40:34.682Z,15.7
2022-11-21T09:41:41.979Z,15.9
2022-11-21T09:43:04.382Z,14.9
2022-11-21T09:44:19.170Z,13.8
2022-11-21T09:45:26.282Z,15.1
2022-11-21T09:46:36.527Z,15.7
2022-11-21T09:47:43.658Z,14.7
2022-11-21T09:48:50.815Z,13.5
2022-11-21T09:49:57.867Z,16.3
2022-11-21T09:51:08.490Z,15.4
2022-11-21T09:52:15.761Z,14.8
2022-11-21T09:53:22.856Z,13.2
2022-11-21T09:54:38.044Z,14.6
2022-11-21T09:55:45.263Z,14.7
2022-11-21T09:56:52.419Z,13.8
2022-11-21T09:57:59.540Z,15.5
2022-11-21T09:59:17.040Z,14.3
2022-11-21T10:00:32.135Z,13.4
2022-11-21T10:01:39.182Z,13.8
2022-11-21T10:04:25.162Z,14.3
2022-11-21T10:05:32.076Z,14.4
2022-11-21T10:06:44.358Z,14.5
2022-11-21T10:07:56.728Z,13.8
2022-11-21T10:09:03.656Z,14.4
2022-11-21T10:10:16.908Z,14.1
2022-11-21T10:11:34.310Z,16.5
2022-11-21T10:12:46.663Z,12.8
2022-11-21T10:14:05.251Z,13.5
2022-11-21T10:15:20.044Z,11.6
2022-11-21T10:16:29.962Z,12.6
2022-11-21T10:17:39.977Z,13.4
2022-11-21T10:18:53.211Z,12.1
2022-11-21T10:20:08.439Z,13.5
2022-11-21T10:21:21.363Z,12.1
2022-11-21T10:22:29.239Z,12.7
2022-11-21T10:23:44.348Z,11
2022-11-21T10:25:01.963Z,12.4
2022-11-21T10:26:16.717Z,11
2022-11-21T10:27:32.479Z,14
2022-11-21T10:28:42.075Z,12.6
2022-11-21T10:29:49.278Z,11.3
2022-11-21T10:30:59.115Z,10.8
2022-11-21T10:32:06.578Z,12.3
2022-11-21T10:33:18.711Z,11.5
2022-11-21T10:34:31.322Z,12.1
2022-11-21T10:35:39.295Z,11.5
2022-11-21T10:36:51.630Z,12
2022-11-21T10:37:59.143Z,11.6
2022-11-21T10:39:06.930Z,10.6
2022-11-21T10:40:16.749Z,11.4
2022-11-21T10:41:27.179Z,10.2
2022-11-21T10:42:39.791Z,11.7
2022-11-21T10:43:55.784Z,11.6
2022-11-21T10:45:13.206Z,11
2022-11-21T10:46:20.331Z,10.7
2022-11-21T10:47:27.828Z,9.1
2022-11-21T10:48:35.755Z,10
2022-11-21T10:49:43.206Z,9.2
2022-11-21T10:50:50.746Z,11.1
2022-11-21T10:52:04.107Z,10.5
2022-11-21T10:53:14.320Z,10.9
2022-11-21T10:54:26.929Z,11.1
2022-11-21T10:55:36.671Z,10.5
2022-11-21T10:56:44.082Z,10.2
2022-11-21T10:57:51.001Z,9.4
2022-11-21T10:58:58.086Z,9.9
2022-11-21T11:00:05.427Z,9.4
2022-11-21T11:01:15.958Z,9.2
2022-11-21T11:02:28.142Z,8.7
2022-11-21T11:03:35.303Z,8.7
2022-11-21T11:04:47.699Z,9.1
2022-11-21T11:05:49.918Z,8.6
2022-11-21T11:06:57.285Z,8.4
2022-11-21T11:08:04.688Z,8.4
2022-11-21T11:09:12.931Z,10.2
2022-11-21T11:10:29.248Z,9.3
2022-11-21T11:11:39.386Z,8.9
2022-11-21T11:12:46.787Z,8.1
2022-11-21T11:13:58.798Z,9.5
2022-11-21T11:15:05.974Z,8.5
2022-11-21T11:16:13.107Z,9.2
2022-11-21T11:17:20.186Z,8.8
2022-11-21T11:18:32.406Z,9
2022-11-21T11:19:42.749Z,8.4
2022-11-21T11:20:54.786Z,7.5
2022-11-21T11:22:10.358Z,9.5
2022-11-21T11:23:27.898Z,9.3
2022-11-21T11:24:35.142Z,8.6
2022-11-21T11:25:42.135Z,9.2
2022-11-21T11:26:52.318Z,8.1
2022-11-21T11:28:00.838Z,8.6
2022-11-21T11:29:09.065Z,8.8
2022-11-21T11:30:26.516Z,8.6
2022-11-21T11:31:33.594Z,8.9
2022-11-21T11:32:51.861Z,8.8
2022-11-21T11:33:59.241Z,8.4
2022-11-21T11:35:06.146Z,9.6
2022-11-21T11:36:17.073Z,10.3
2022-11-21T11:37:35.814Z,10.1
2022-11-21T11:38:43.926Z,10.1
2022-11-21T11:39:58.902Z,9.1
2022-11-21T11:41:11.546Z,9
2022-11-21T11:42:23.508Z,9.1
2022-11-21T11:43:40.775Z,9.3
2022-11-21T11:44:55.732Z,9
2022-11-21T11:46:15.956Z,8
2022-11-21T11:47:28.940Z,8
2022-11-21T11:48:50.322Z,7.2
2022-11-21T11:49:44.833Z,7.3
2022-11-21T11:50:57.933Z,6.8
2022-11-21T11:52:05.084Z,7.7
2022-11-21T11:53:13.316Z,8.7
2022-11-21T11:54:23.120Z,7.7
2022-11-21T11:55:30.641Z,8.5
2022-11-21T11:56:47.162Z,7.8
2022-11-21T11:57:54.469Z,8.7
2022-11-21T11:59:02.017Z,7.3
2022-11-21T12:00:14.242Z,8.3
2022-11-21T12:01:31.157Z,8.2
2022-11-21T12:02:47.010Z,8
2022-11-21T12:04:05.396Z,8
2022-11-21T12:05:18.693Z,7.5
2022-11-21T12:06:52.743Z,8.5
2022-11-21T12:08:51.738Z,7.8
2022-11-21T12:09:59.298Z,8.4
2022-11-21T12:11:14.400Z,8.7
2022-11-21T12:12:37.700Z,7.8
2022-11-21T12:13:46.305Z,7.8
2022-11-21T12:14:53.411Z,8
2022-11-21T12:16:13.557Z,7.5
2022-11-21T12:17:17.744Z,8.3
2022-11-21T12:18:25.164Z,7.2
2022-11-21T12:19:35.037Z,7.4
2022-11-21T12:20:42.224Z,7.5
2022-11-21T12:21:50.248Z,8.6
2022-11-21T12:22:57.476Z,7.8
2022-11-21T12:24:04.659Z,7.9
2022-11-21T12:25:11.857Z,7
2022-11-21T12:26:19.075Z,8.4
2022-11-21T12:27:34.311Z,8.5
2022-11-21T12:28:41.753Z,7.7
2022-11-21T12:29:58.407Z,8.4
2022-11-21T12:31:16.855Z,7.1
2022-11-21T12:32:34.399Z,7.6
2022-11-21T12:33:47.773Z,8.6
2022-11-21T12:35:00.226Z,9.6
2022-11-21T12:36:18.103Z,8.4
2022-11-21T12:37:27.684Z,10.9
2022-11-21T12:38:44.661Z,9.4
2022-11-21T12:39:57.192Z,10.6
2022-11-21T12:41:13.061Z,10.1
2022-11-21T12:42:32.821Z,10.8
2022-11-21T12:43:46.985Z,10.4
2022-11-21T12:44:52.903Z,9
2022-11-21T12:46:05.138Z,9
2022-11-21T12:47:17.976Z,9.1
2022-11-21T12:48:27.688Z,10.2
2022-11-21T12:49:47.958Z,9
2022-11-21T12:51:02.860Z,8
2022-11-21T12:52:26.052Z,8.9
2022-11-21T12:53:41.019Z,7.8
2022-11-21T12:54:56.296Z,8.6
2022-11-21T12:56:11.590Z,8.8
2022-11-21T12:57:20.151Z,9.7
2022-11-21T12:58:35.901Z,10.9
2022-11-21T12:59:43.996Z,9.3
2022-11-21T13:01:01.609Z,7.8
2022-11-21T13:02:14.168Z,9
2022-11-21T13:03:31.455Z,7.2
2022-11-21T13:04:43.664Z,8.8
2022-11-21T13:05:50.972Z,9.5
2022-11-21T13:07:00.685Z,8.2
2022-11-21T13:08:07.657Z,8.2
2022-11-21T13:09:14.764Z,7.4
2022-11-21T13:10:24.517Z,8.4
2022-11-21T13:11:31.644Z,9
2022-11-21T13:12:50.796Z,8.4
2022-11-21T13:14:04.324Z,8.2
2022-11-21T13:15:19.451Z,8.8
2022-11-21T13:16:31.841Z,7.7
2022-11-21T13:17:41.888Z,9.4
2022-11-21T13:18:54.964Z,9.6
2022-11-21T13:20:02.283Z,8.6
2022-11-21T13:21:20.368Z,10
2022-11-21T13:22:38.066Z,8.1
2022-11-21T13:23:44.930Z,9.8
2022-11-21T13:24:52.432Z,9.7
2022-11-21T13:26:00.176Z,8.9
2022-11-21T13:27:17.680Z,9.3
2022-11-21T13:28:28.052Z,10.6
2022-11-21T13:29:37.765Z,11.1
2022-11-21T13:30:44.804Z,11.7
2022-11-21T13:31:51.848Z,11.5
2022-11-21T13:32:59.172Z,11.3
2022-11-21T13:34:07.064Z,9.8
2022-11-21T13:35:19.591Z,9.8
2022-11-21T13:36:26.996Z,8.8
2022-11-21T13:37:34.062Z,10.6
2022-11-21T13:38:51.609Z,9.6
2022-11-21T13:39:58.540Z,9.6
2022-11-21T13:41:15.973Z,9.9
2022-11-21T13:42:36.911Z,10.2
2022-11-21T13:43:59.624Z,10.7
2022-11-21T13:45:16.955Z,10.3
2022-11-21T13:46:32.705Z,10.8
2022-11-21T13:47:54.108Z,11.1
2022-11-21T13:49:00.292Z,11.3
2022-11-21T13:50:10.440Z,11.5
2022-11-21T13:51:22.584Z,11.7
2022-11-21T13:52:39.893Z,11.4
2022-11-21T13:53:57.742Z,11.2
2022-11-21T13:55:07.987Z,11.5
2022-11-21T13:56:25.232Z,11.7
2022-11-21T13:57:42.580Z,12.2
2022-11-21T13:58:52.747Z,9.9
2022-11-21T14:00:08.377Z,10.4
2022-11-21T14:01:27.653Z,11.3
2022-11-21T14:02:44.840Z,10.7
2022-11-21T14:04:02.898Z,10.9
2022-11-21T14:05:14.132Z,11.2
2022-11-21T14:06:32.883Z,9.8
2022-11-21T14:07:44.998Z,11.2
2022-11-21T14:08:52.853Z,11.2
2022-11-21T14:10:11.384Z,12
2022-11-21T14:11:29.301Z,11.2
2022-11-21T14:12:39.725Z,10.9
2022-11-21T14:13:44.536Z,10.1
2022-11-21T14:14:51.989Z,11.3
2022-11-21T14:16:04.332Z,11
2022-11-21T14:17:21.505Z,11
2022-11-21T14:18:39.035Z,11.6
2022-11-21T14:19:47.491Z,11.2
2022-11-21T14:20:55.699Z,11
2022-11-21T14:22:02.842Z,12.2
2022-11-21T14:23:16.321Z,11.4
2022-11-21T14:24:24.241Z,11.7
2022-11-21T14:25:31.325Z,11.9
2022-11-21T14:26:44.323Z,11.2
2022-11-21T14:27:51.452Z,12
2022-11-21T14:28:59.888Z,10.4
2022-11-21T14:30:17.467Z,13.4
2022-11-21T14:31:30.035Z,11.6
2022-11-21T14:32:37.517Z,12.6
2022-11-21T14:33:45.588Z,11.8
2022-11-21T14:34:52.838Z,13.1
2022-11-21T14:36:10.372Z,11.9
2022-11-21T14:37:21.788Z,12.1
2022-11-21T14:38:29.020Z,14
2022-11-21T14:39:50.074Z,14.9
2022-11-21T14:40:54.531Z,15.6
2022-11-21T14:42:13.029Z,14.8
2022-11-21T14:43:19.876Z,14.2
2022-11-21T14:44:27.743Z,15.7
2022-11-21T14:45:34.203Z,15.3
2022-11-21T14:46:41.697Z,13.9
2022-11-21T14:47:49.108Z,13.2
2022-11-21T14:48:56.251Z,12.1
2022-11-21T14:50:14.795Z,12.1
2022-11-21T14:51:32.423Z,12.4
2022-11-21T14:52:40.168Z,12.5
2022-11-21T14:53:47.660Z,14.2
2022-11-21T14:56:04.879Z,12.6
2022-11-21T14:57:12.008Z,12.7
2022-11-21T14:58:21.776Z,13.1
2022-11-21T14:59:28.923Z,14.8
2022-11-21T15:00:59.427Z,14.5
2022-11-21T15:01:47.687Z,14.7
2022-11-21T15:02:58.274Z,15.5
2022-11-21T15:04:05.827Z,14.4
2022-11-21T15:05:24.812Z,14.7
2022-11-21T15:06:23.405Z,15.9
2022-11-21T15:07:32.171Z,18.6
2022-11-21T15:10:27.180Z,18.3
2022-11-21T15:10:59.387Z,17.8
2022-11-21T15:12:05.237Z,16.6
2022-11-21T15:13:14.675Z,15.7
2022-11-21T15:14:22.216Z,15.7
2022-11-21T15:15:34.527Z,16.7
2022-11-21T15:16:41.818Z,15.1
2022-11-21T15:18:18.316Z,16.6
2022-11-21T15:19:02.343Z,18.1
2022-11-21T15:20:13.231Z,17.4
2022-11-21T15:21:20.824Z,19.1
2022-11-21T15:22:28.319Z,20
2022-11-21T15:23:41.291Z,18.4
2022-11-21T15:24:49.028Z,20.5
2022-11-21T15:26:00.565Z,19.4
2022-11-21T15:27:03.899Z,17.7
2022-11-21T15:28:21.397Z,18.8
2022-11-21T15:29:28.718Z,19.5
2022-11-21T15:30:35.491Z,19.3
2022-11-21T15:31:42.808Z,16.6
2022-11-21T15:32:50.051Z,18.4
2022-11-21T15:35:14.719Z,18.5
2022-11-21T15:36:30.191Z,18.9
2022-11-21T15:37:37.248Z,20.3
2022-11-21T15:38:44.237Z,21.2